sensor_id;sensor_type;location;lat;lon;timestamp;pressure;altitude;pressure_sealevel;temperature;humidity
75026;BME280;63591;50.080;8.286;2022-11-15T00:00:44;99397.22;;;15.51;59.55
75026;BME280;63591;50.080;8.286;2022-11-15T00:03:10;99391.13;;;15.51;59.15
75026;BME280;63591;50.080;8.286;2022-11-15T00:05:35;99391.94;;;15.51;59.17
75026;BME280;63591;50.080;8.286;2022-11-15T00:08:01;99388.50;;;15.51;59.21
75026;BME280;63591;50.080;8.286;2022-11-15T00:10:26;99387.66;;;15.50;59.34
75026;BME280;63591;50.080;8.286;2022-11-15T00:12:51;99386.88;;;15.50;59.46
75026;BME280;63591;50.080;8.286;2022-11-15T00:15:17;99389.50;;;15.50;59.63
75026;BME280;63591;50.080;8.286;2022-11-15T00:17:42;99385.84;;;15.51;59.19
75026;BME280;63591;50.080;8.286;2022-11-15T00:20:08;99388.31;;;15.52;59.44
75026;BME280;63591;50.080;8.286;2022-11-15T00:22:33;99379.53;;;15.52;59.08
75026;BME280;63591;50.080;8.286;2022-11-15T00:24:59;99378.72;;;15.51;59.52
75026;BME280;63591;50.080;8.286;2022-11-15T00:27:24;99372.63;;;15.51;59.36
75026;BME280;63591;50.080;8.286;2022-11-15T00:29:50;99371.63;;;15.52;59.53
75026;BME280;63591;50.080;8.286;2022-11-15T00:32:15;99371.63;;;15.52;59.50
75026;BME280;63591;50.080;8.286;2022-11-15T00:34:40;99360.19;;;15.51;59.47
75026;BME280;63591;50.080;8.286;2022-11-15T00:37:06;99366.31;;;15.52;59.69
75026;BME280;63591;50.080;8.286;2022-11-15T00:39:31;99361.03;;;15.52;59.66
75026;BME280;63591;50.080;8.286;2022-11-15T00:41:56;99361.84;;;15.52;59.38
75026;BME280;63591;50.080;8.286;2022-11-15T00:44:22;99356.56;;;15.52;59.44
75026;BME280;63591;50.080;8.286;2022-11-15T00:46:47;99351.28;;;15.52;59.35
75026;BME280;63591;50.080;8.286;2022-11-15T00:49:12;99361.03;;;15.52;59.60
75026;BME280;63591;50.080;8.286;2022-11-15T00:51:38;99357.56;;;15.51;59.84
75026;BME280;63591;50.080;8.286;2022-11-15T00:54:03;99362.84;;;15.51;59.86
75026;BME280;63591;50.080;8.286;2022-11-15T00:56:28;99361.03;;;15.52;59.83
75026;BME280;63591;50.080;8.286;2022-11-15T00:58:54;99352.06;;;15.53;59.73
75026;BME280;63591;50.080;8.286;2022-11-15T01:01:19;99352.06;;;15.53;59.59
75026;BME280;63591;50.080;8.286;2022-11-15T01:03:45;99344.16;;;15.53;59.41
75026;BME280;63591;50.080;8.286;2022-11-15T01:06:10;99344.16;;;15.53;59.51
75026;BME280;63591;50.080;8.286;2022-11-15T01:08:38;99340.69;;;15.52;59.68
75026;BME280;63591;50.080;8.286;2022-11-15T01:11:06;99338.84;;;15.53;59.77
75026;BME280;63591;50.080;8.286;2022-11-15T01:13:32;99340.69;;;15.52;59.58
75026;BME280;63591;50.080;8.286;2022-11-15T01:15:59;99341.50;;;15.53;59.74
75026;BME280;63591;50.080;8.286;2022-11-15T01:18:30;99353.94;;;15.52;59.61
75026;BME280;63591;50.080;8.286;2022-11-15T01:20:55;99353.09;;;15.52;59.83
75026;BME280;63591;50.080;8.286;2022-11-15T01:23:20;99346.00;;;15.52;59.70
75026;BME280;63591;50.080;8.286;2022-11-15T01:25:46;99342.50;;;15.52;59.86
75026;BME280;63591;50.080;8.286;2022-11-15T01:28:11;99343.16;;;15.54;60.03
75026;BME280;63591;50.080;8.286;2022-11-15T01:30:36;99340.69;;;15.52;59.97
75026;BME280;63591;50.080;8.286;2022-11-15T01:33:02;99343.97;;;15.54;59.95
75026;BME280;63591;50.080;8.286;2022-11-15T01:35:27;99335.22;;;15.54;60.04
75026;BME280;63591;50.080;8.286;2022-11-15T01:37:52;99327.28;;;15.54;59.87
75026;BME280;63591;50.080;8.286;2022-11-15T01:40:17;99339.69;;;15.53;59.97
75026;BME280;63591;50.080;8.286;2022-11-15T01:42:43;99327.09;;;15.56;59.72
75026;BME280;63591;50.080;8.286;2022-11-15T01:45:14;99329.09;;;15.53;60.03
75026;BME280;63591;50.080;8.286;2022-11-15T01:47:43;99326.28;;;15.55;60.20
75026;BME280;63591;50.080;8.286;2022-11-15T01:50:14;99323.63;;;15.55;60.30
75026;BME280;63591;50.080;8.286;2022-11-15T01:52:41;99315.06;;;15.53;60.24
75026;BME280;63591;50.080;8.286;2022-11-15T01:55:11;99323.63;;;15.55;60.06
75026;BME280;63591;50.080;8.286;2022-11-15T01:57:39;99313.03;;;15.55;60.10
75026;BME280;63591;50.080;8.286;2022-11-15T02:00:07;99313.88;;;15.56;60.22
75026;BME280;63591;50.080;8.286;2022-11-15T02:02:34;99302.28;;;15.57;60.43
75026;BME280;63591;50.080;8.286;2022-11-15T02:05:01;99297.81;;;15.57;60.24
75026;BME280;63591;50.080;8.286;2022-11-15T02:07:28;99295.34;;;15.56;60.09
75026;BME280;63591;50.080;8.286;2022-11-15T02:09:55;99293.50;;;15.56;60.41
75026;BME280;63591;50.080;8.286;2022-11-15T02:12:22;99293.50;;;15.56;60.19
75026;BME280;63591;50.080;8.286;2022-11-15T02:14:50;99286.41;;;15.57;60.37
75026;BME280;63591;50.080;8.286;2022-11-15T02:28:28;99287.22;;;15.57;60.41
75026;BME280;63591;50.080;8.286;2022-11-15T02:36:42;99284.97;;;15.54;60.42
75026;BME280;63591;50.080;8.286;2022-11-15T02:39:25;99270.72;;;15.55;60.32
75026;BME280;63591;50.080;8.286;2022-11-15T02:41:57;99274.00;;;15.57;60.46
75026;BME280;63591;50.080;8.286;2022-11-15T02:44:32;99274.19;;;15.56;60.36
75026;BME280;63591;50.080;8.286;2022-11-15T02:47:04;99272.72;;;15.53;60.50
75026;BME280;63591;50.080;8.286;2022-11-15T02:49:44;99278.03;;;15.53;60.39
75026;BME280;63591;50.080;8.286;2022-11-15T02:52:15;99270.09;;;15.53;60.44
75026;BME280;63591;50.080;8.286;2022-11-15T02:54:40;99269.09;;;15.54;60.58
75026;BME280;63591;50.080;8.286;2022-11-15T02:57:12;99278.84;;;15.53;60.54
75026;BME280;63591;50.080;8.286;2022-11-15T03:02:35;99264.78;;;15.53;60.66
75026;BME280;63591;50.080;8.286;2022-11-15T03:05:18;99263.81;;;15.54;60.29
75026;BME280;63591;50.080;8.286;2022-11-15T03:13:25;99260.97;;;15.56;60.59
75026;BME280;63591;50.080;8.286;2022-11-15T03:16:29;99271.09;;;15.52;60.60
75026;BME280;63591;50.080;8.286;2022-11-15T03:19:17;99267.25;;;15.54;60.78
75026;BME280;63591;50.080;8.286;2022-11-15T03:21:45;99266.88;;;15.58;60.63
75026;BME280;63591;50.080;8.286;2022-11-15T03:24:14;99260.78;;;15.57;60.43
75026;BME280;63591;50.080;8.286;2022-11-15T03:26:43;99268.72;;;15.57;60.76
75026;BME280;63591;50.080;8.286;2022-11-15T03:29:13;99268.72;;;15.57;60.58
75026;BME280;63591;50.080;8.286;2022-11-15T03:31:44;99267.06;;;15.56;60.55
75026;BME280;63591;50.080;8.286;2022-11-15T03:35:05;99263.81;;;15.54;60.87
75026;BME280;63591;50.080;8.286;2022-11-15T03:37:05;99255.69;;;15.56;60.62
75026;BME280;63591;50.080;8.286;2022-11-15T03:39:32;99259.13;;;15.56;60.76
75026;BME280;63591;50.080;8.286;2022-11-15T03:42:21;99256.66;;;15.54;60.94
75026;BME280;63591;50.080;8.286;2022-11-15T03:45:01;99255.69;;;15.56;60.67
75026;BME280;63591;50.080;8.286;2022-11-15T03:47:34;99254.66;;;15.57;60.92
75026;BME280;63591;50.080;8.286;2022-11-15T03:50:11;99259.13;;;15.56;60.84
75026;BME280;63591;50.080;8.286;2022-11-15T03:52:39;99257.31;;;15.57;60.62
75026;BME280;63591;50.080;8.286;2022-11-15T03:55:07;99264.41;;;15.56;60.78
75026;BME280;63591;50.080;8.286;2022-11-15T03:57:33;99257.31;;;15.57;60.98
75026;BME280;63591;50.080;8.286;2022-11-15T03:59:58;99258.13;;;15.57;61.00
75026;BME280;63591;50.080;8.286;2022-11-15T04:02:23;99263.44;;;15.57;60.75
75026;BME280;63591;50.080;8.286;2022-11-15T04:04:49;99267.88;;;15.57;61.01
75026;BME280;63591;50.080;8.286;2022-11-15T04:07:14;99267.88;;;15.57;61.02
75026;BME280;63591;50.080;8.286;2022-11-15T04:09:39;99259.94;;;15.57;61.21
75026;BME280;63591;50.080;8.286;2022-11-15T04:12:23;99259.94;;;15.57;60.80
75026;BME280;63591;50.080;8.286;2022-11-15T04:17:54;99271.94;;;15.52;60.99
75026;BME280;63591;50.080;8.286;2022-11-15T04:20:28;99267.88;;;15.57;61.09
75026;BME280;63591;50.080;8.286;2022-11-15T04:23:14;99267.69;;;15.58;60.82
75026;BME280;63591;50.080;8.286;2022-11-15T04:26:04;99275.81;;;15.57;61.15
75026;BME280;63591;50.080;8.286;2022-11-15T04:28:30;99268.72;;;15.57;60.97
75026;BME280;63591;50.080;8.286;2022-11-15T04:30:56;99259.94;;;15.57;61.35
75026;BME280;63591;50.080;8.286;2022-11-15T04:33:22;99247.56;;;15.57;61.00
75026;BME280;63591;50.080;8.286;2022-11-15T04:35:48;99246.72;;;15.57;61.26
75026;BME280;63591;50.080;8.286;2022-11-15T04:38:33;99243.25;;;15.56;61.19
75026;BME280;63591;50.080;8.286;2022-11-15T04:40:58;99236.34;;;15.55;61.31
75026;BME280;63591;50.080;8.286;2022-11-15T04:43:23;99236.97;;;15.57;61.42
75026;BME280;63591;50.080;8.286;2022-11-15T04:45:49;99233.31;;;15.58;61.31
75026;BME280;63591;50.080;8.286;2022-11-15T04:48:14;99230.84;;;15.57;61.17
75026;BME280;63591;50.080;8.286;2022-11-15T04:50:39;99231.69;;;15.57;61.46
75026;BME280;63591;50.080;8.286;2022-11-15T04:53:05;99234.34;;;15.57;61.55
75026;BME280;63591;50.080;8.286;2022-11-15T04:55:31;99222.72;;;15.58;61.03
75026;BME280;63591;50.080;8.286;2022-11-15T04:58:00;99227.19;;;15.58;61.40
75026;BME280;63591;50.080;8.286;2022-11-15T05:00:27;99217.44;;;15.58;61.28
75026;BME280;63591;50.080;8.286;2022-11-15T05:02:53;99217.44;;;15.58;61.22
75026;BME280;63591;50.080;8.286;2022-11-15T05:05:36;99215.63;;;15.59;61.09
75026;BME280;63591;50.080;8.286;2022-11-15T05:08:02;99220.91;;;15.59;61.60
75026;BME280;63591;50.080;8.286;2022-11-15T05:10:27;99218.28;;;15.59;61.52
75026;BME280;63591;50.080;8.286;2022-11-15T05:12:53;99220.09;;;15.58;61.45
75026;BME280;63591;50.080;8.286;2022-11-15T05:15:18;99208.69;;;15.58;61.27
75026;BME280;63591;50.080;8.286;2022-11-15T05:17:43;99200.56;;;15.59;61.24
75026;BME280;63591;50.080;8.286;2022-11-15T05:20:09;99191.81;;;15.59;61.60
75026;BME280;63591;50.080;8.286;2022-11-15T05:22:35;99192.63;;;15.59;61.60
75026;BME280;63591;50.080;8.286;2022-11-15T05:25:00;99192.63;;;15.59;61.58
75026;BME280;63591;50.080;8.286;2022-11-15T05:27:25;99184.69;;;15.59;61.57
75026;BME280;63591;50.080;8.286;2022-11-15T05:29:51;99196.28;;;15.58;61.62
75026;BME280;63591;50.080;8.286;2022-11-15T05:32:17;99190.81;;;15.60;61.53
75026;BME280;63591;50.080;8.286;2022-11-15T05:34:43;99204.03;;;15.60;61.69
75026;BME280;63591;50.080;8.286;2022-11-15T05:37:09;99202.22;;;15.60;61.43
75026;BME280;63591;50.080;8.286;2022-11-15T05:39:35;99192.63;;;15.59;61.39
75026;BME280;63591;50.080;8.286;2022-11-15T05:42:06;99194.47;;;15.59;61.62
75026;BME280;63591;50.080;8.286;2022-11-15T05:44:34;99194.47;;;15.59;61.70
75026;BME280;63591;50.080;8.286;2022-11-15T05:47:02;99198.09;;;15.58;61.72
75026;BME280;63591;50.080;8.286;2022-11-15T05:49:31;99203.38;;;15.58;61.63
75026;BME280;63591;50.080;8.286;2022-11-15T05:51:58;99203.19;;;15.59;61.47
75026;BME280;63591;50.080;8.286;2022-11-15T05:54:24;99200.56;;;15.59;61.52
75026;BME280;63591;50.080;8.286;2022-11-15T05:56:50;99205.84;;;15.59;61.44
75026;BME280;63591;50.080;8.286;2022-11-15T05:59:16;99205.84;;;15.59;61.71
75026;BME280;63591;50.080;8.286;2022-11-15T06:01:42;99208.47;;;15.59;61.58
75026;BME280;63591;50.080;8.286;2022-11-15T06:04:08;99220.72;;;15.60;61.50
75026;BME280;63591;50.080;8.286;2022-11-15T06:06:33;99222.53;;;15.60;61.96
75026;BME280;63591;50.080;8.286;2022-11-15T06:08:58;99217.06;;;15.61;61.78
75026;BME280;63591;50.080;8.286;2022-11-15T06:11:23;99222.34;;;15.61;61.94
75026;BME280;63591;50.080;8.286;2022-11-15T06:13:49;99217.06;;;15.61;61.86
75026;BME280;63591;50.080;8.286;2022-11-15T06:16:14;99213.59;;;15.61;61.79
75026;BME280;63591;50.080;8.286;2022-11-15T06:18:39;99201.19;;;15.61;61.55
75026;BME280;63591;50.080;8.286;2022-11-15T06:21:05;99206.47;;;15.61;62.02
75026;BME280;63591;50.080;8.286;2022-11-15T06:23:32;99196.72;;;15.62;61.67
75026;BME280;63591;50.080;8.286;2022-11-15T06:25:58;99205.66;;;15.61;61.42
75026;BME280;63591;50.080;8.286;2022-11-15T06:28:24;99211.78;;;15.61;61.87
75026;BME280;63591;50.080;8.286;2022-11-15T06:30:50;99204.84;;;15.60;61.81
75026;BME280;63591;50.080;8.286;2022-11-15T06:33:15;99205.66;;;15.61;61.44
75026;BME280;63591;50.080;8.286;2022-11-15T06:35:41;99192.63;;;15.59;61.72
75026;BME280;63591;50.080;8.286;2022-11-15T06:38:08;99200.75;;;15.58;61.79
75026;BME280;63591;50.080;8.286;2022-11-15T06:40:35;99208.47;;;15.59;61.74
75026;BME280;63591;50.080;8.286;2022-11-15T06:43:00;99209.31;;;15.60;62.08
75026;BME280;63591;50.080;8.286;2022-11-15T06:45:27;99212.97;;;15.59;62.11
75026;BME280;63591;50.080;8.286;2022-11-15T06:47:52;99209.31;;;15.60;61.70
75026;BME280;63591;50.080;8.286;2022-11-15T06:50:18;99217.25;;;15.60;61.68
75026;BME280;63591;50.080;8.286;2022-11-15T06:52:43;99208.47;;;15.59;61.93
75026;BME280;63591;50.080;8.286;2022-11-15T06:55:09;99214.59;;;15.60;61.79
75026;BME280;63591;50.080;8.286;2022-11-15T06:57:35;99214.59;;;15.60;61.64
75026;BME280;63591;50.080;8.286;2022-11-15T07:00:01;99220.72;;;15.60;61.60
75026;BME280;63591;50.080;8.286;2022-11-15T07:02:26;99225.19;;;15.60;61.72
75026;BME280;63591;50.080;8.286;2022-11-15T07:04:51;99224.34;;;15.59;61.71
75026;BME280;63591;50.080;8.286;2022-11-15T07:07:17;99217.25;;;15.60;61.61
75026;BME280;63591;50.080;8.286;2022-11-15T07:09:42;99223.38;;;15.60;61.61
75026;BME280;63591;50.080;8.286;2022-11-15T07:12:07;99221.53;;;15.61;61.96
75026;BME280;63591;50.080;8.286;2022-11-15T07:14:33;99218.09;;;15.60;61.84
75026;BME280;63591;50.080;8.286;2022-11-15T07:16:58;99213.59;;;15.61;61.74
75026;BME280;63591;50.080;8.286;2022-11-15T07:19:23;99208.28;;;15.61;61.83
75026;BME280;63591;50.080;8.286;2022-11-15T07:21:49;99205.66;;;15.61;61.92
75026;BME280;63591;50.080;8.286;2022-11-15T07:24:14;99206.66;;;15.60;61.47
75026;BME280;63591;50.080;8.286;2022-11-15T07:26:39;99208.28;;;15.61;61.75
75026;BME280;63591;50.080;8.286;2022-11-15T07:29:05;99216.22;;;15.61;61.67
75026;BME280;63591;50.080;8.286;2022-11-15T07:31:30;99210.16;;;15.60;61.71
75026;BME280;63591;50.080;8.286;2022-11-15T07:33:56;99211.78;;;15.61;62.11
75026;BME280;63591;50.080;8.286;2022-11-15T07:36:21;99214.41;;;15.61;61.95
75026;BME280;63591;50.080;8.286;2022-11-15T07:38:46;99213.59;;;15.61;61.68
75026;BME280;63591;50.080;8.286;2022-11-15T07:41:12;99219.72;;;15.61;61.98
75026;BME280;63591;50.080;8.286;2022-11-15T07:43:37;99219.72;;;15.61;61.98
75026;BME280;63591;50.080;8.286;2022-11-15T07:46:06;99221.53;;;15.61;61.84
75026;BME280;63591;50.080;8.286;2022-11-15T07:48:34;99222.34;;;15.61;62.16
75026;BME280;63591;50.080;8.286;2022-11-15T07:51:00;99229.47;;;15.61;61.77
75026;BME280;63591;50.080;8.286;2022-11-15T07:53:25;99221.72;;;15.59;62.01
75026;BME280;63591;50.080;8.286;2022-11-15T07:55:50;99227.84;;;15.60;62.00
75026;BME280;63591;50.080;8.286;2022-11-15T07:58:15;99225.19;;;15.60;62.02
75026;BME280;63591;50.080;8.286;2022-11-15T08:00:41;99220.72;;;15.60;62.15
75026;BME280;63591;50.080;8.286;2022-11-15T08:03:09;99224.34;;;15.59;62.18
75026;BME280;63591;50.080;8.286;2022-11-15T08:05:35;99226.81;;;15.61;62.09
75026;BME280;63591;50.080;8.286;2022-11-15T08:08:01;99214.41;;;15.61;62.00
75026;BME280;63591;50.080;8.286;2022-11-15T08:10:27;99208.47;;;15.59;61.99
75026;BME280;63591;50.080;8.286;2022-11-15T08:13:19;99217.44;;;15.58;61.97
75026;BME280;63591;50.080;8.286;2022-11-15T08:15:46;99206.47;;;15.61;62.10
75026;BME280;63591;50.080;8.286;2022-11-15T08:18:14;99209.13;;;15.61;62.09
75026;BME280;63591;50.080;8.286;2022-11-15T08:20:40;99200.38;;;15.61;61.99
75026;BME280;63591;50.080;8.286;2022-11-15T08:23:06;99195.06;;;15.61;62.28
75026;BME280;63591;50.080;8.286;2022-11-15T08:25:34;99205.66;;;15.61;62.40
75026;BME280;63591;50.080;8.286;2022-11-15T08:28:02;99201.38;;;15.60;62.30
75026;BME280;63591;50.080;8.286;2022-11-15T08:30:28;99200.38;;;15.61;62.27
75026;BME280;63591;50.080;8.286;2022-11-15T08:32:56;99201.19;;;15.61;62.19
75026;BME280;63591;50.080;8.286;2022-11-15T08:35:22;99196.72;;;15.62;62.49
75026;BME280;63591;50.080;8.286;2022-11-15T08:37:48;99198.53;;;15.61;62.28
75026;BME280;63591;50.080;8.286;2022-11-15T08:40:14;99199.56;;;15.60;62.62
75026;BME280;63591;50.080;8.286;2022-11-15T08:42:40;99195.91;;;15.61;62.44
75026;BME280;63591;50.080;8.286;2022-11-15T08:45:06;99201.19;;;15.61;62.64
75026;BME280;63591;50.080;8.286;2022-11-15T08:47:31;99203.84;;;15.61;62.29
75026;BME280;63591;50.080;8.286;2022-11-15T08:49:57;99195.91;;;15.61;62.64
75026;BME280;63591;50.080;8.286;2022-11-15T08:52:22;99203.66;;;15.63;62.27
75026;BME280;63591;50.080;8.286;2022-11-15T08:54:47;99201.00;;;15.63;62.33
75026;BME280;63591;50.080;8.286;2022-11-15T08:57:13;99195.72;;;15.63;62.67
75026;BME280;63591;50.080;8.286;2022-11-15T08:59:38;99198.34;;;15.63;62.62
75026;BME280;63591;50.080;8.286;2022-11-15T09:02:04;99200.16;;;15.62;62.73
75026;BME280;63591;50.080;8.286;2022-11-15T09:04:30;99203.66;;;15.63;62.71
75026;BME280;63591;50.080;8.286;2022-11-15T09:06:55;99202.81;;;15.62;62.88
75026;BME280;63591;50.080;8.286;2022-11-15T09:09:21;99201.78;;;15.63;62.91
75026;BME280;63591;50.080;8.286;2022-11-15T09:11:46;99199.16;;;15.63;63.05
75026;BME280;63591;50.080;8.286;2022-11-15T09:14:12;99189.59;;;15.62;63.16
75026;BME280;63591;50.080;8.286;2022-11-15T09:16:38;99196.50;;;15.63;62.99
75026;BME280;63591;50.080;8.286;2022-11-15T09:19:03;99189.59;;;15.62;62.84
75026;BME280;63591;50.080;8.286;2022-11-15T09:21:29;99191.22;;;15.63;63.37
75026;BME280;63591;50.080;8.286;2022-11-15T09:23:55;99191.22;;;15.63;63.21
75026;BME280;63591;50.080;8.286;2022-11-15T09:26:20;99190.41;;;15.63;62.95
75026;BME280;63591;50.080;8.286;2022-11-15T09:28:45;99184.09;;;15.64;63.22
75026;BME280;63591;50.080;8.286;2022-11-15T09:31:11;99189.41;;;15.64;62.98
75026;BME280;63591;50.080;8.286;2022-11-15T09:33:36;99190.22;;;15.64;63.27
75026;BME280;63591;50.080;8.286;2022-11-15T09:36:07;99184.94;;;15.64;63.10
75026;BME280;63591;50.080;8.286;2022-11-15T09:38:33;99192.88;;;15.64;63.36
75026;BME280;63591;50.080;8.286;2022-11-15T09:49:00;99177.59;;;15.66;63.03
75026;BME280;63591;50.080;8.286;2022-11-15T09:51:35;99173.53;;;15.64;63.15
75026;BME280;63591;50.080;8.286;2022-11-15T09:54:07;99168.03;;;15.65;63.01
75026;BME280;63591;50.080;8.286;2022-11-15T09:56:37;99165.41;;;15.65;63.52
75026;BME280;63591;50.080;8.286;2022-11-15T10:04:33;99166.41;;;15.64;63.26
75026;BME280;63591;50.080;8.286;2022-11-15T10:07:06;99174.34;;;15.64;63.54
75026;BME280;63591;50.080;8.286;2022-11-15T10:10:02;99175.56;;;15.62;63.41
75026;BME280;63591;50.080;8.286;2022-11-15T10:12:29;99166.22;;;15.66;63.29
75026;BME280;63591;50.080;8.286;2022-11-15T10:15:02;99179.66;;;15.64;63.34
75026;BME280;63591;50.080;8.286;2022-11-15T10:20:24;99165.78;;;15.62;63.69
75026;BME280;63591;50.080;8.286;2022-11-15T10:22:56;99158.47;;;15.64;63.38
75026;BME280;63591;50.080;8.286;2022-11-15T10:28:11;99155.00;;;15.64;63.39
75026;BME280;63591;50.080;8.286;2022-11-15T10:30:40;99156.44;;;15.66;63.28
75026;BME280;63591;50.080;8.286;2022-11-15T10:35:36;99146.06;;;15.65;63.53
75026;BME280;63591;50.080;8.286;2022-11-15T10:38:06;99145.25;;;15.64;63.66
75026;BME280;63591;50.080;8.286;2022-11-15T10:40:32;99134.47;;;15.66;63.75
75026;BME280;63591;50.080;8.286;2022-11-15T10:43:24;99128.75;;;15.62;63.64
75026;BME280;63591;50.080;8.286;2022-11-15T10:45:54;99123.06;;;15.65;63.45
75026;BME280;63591;50.080;8.286;2022-11-15T10:48:21;99116.94;;;15.65;63.74
75026;BME280;63591;50.080;8.286;2022-11-15T10:50:48;99112.50;;;15.65;63.79
75026;BME280;63591;50.080;8.286;2022-11-15T10:53:28;99107.38;;;15.64;63.56
75026;BME280;63591;50.080;8.286;2022-11-15T10:55:59;99104.56;;;15.65;63.58
75026;BME280;63591;50.080;8.286;2022-11-15T10:58:37;99096.81;;;15.64;63.97
75026;BME280;63591;50.080;8.286;2022-11-15T11:01:22;99079.13;;;15.64;63.61
75026;BME280;63591;50.080;8.286;2022-11-15T11:04:07;99084.41;;;15.64;63.96
75026;BME280;63591;50.080;8.286;2022-11-15T11:06:53;99073.81;;;15.64;63.94
75026;BME280;63591;50.080;8.286;2022-11-15T11:09:37;99073.00;;;15.64;63.56
75026;BME280;63591;50.080;8.286;2022-11-15T11:12:05;99068.16;;;15.68;64.08
75026;BME280;63591;50.080;8.286;2022-11-15T11:14:35;99070.16;;;15.65;63.71
75026;BME280;63591;50.080;8.286;2022-11-15T11:22:30;99063.84;;;15.66;64.27
75026;BME280;63591;50.080;8.286;2022-11-15T11:25:30;99055.31;;;15.64;64.20
75026;BME280;63591;50.080;8.286;2022-11-15T11:28:39;99055.31;;;15.64;64.18
75026;BME280;63591;50.080;8.286;2022-11-15T11:34:15;99054.28;;;15.65;63.89
75026;BME280;63591;50.080;8.286;2022-11-15T11:37:18;99057.31;;;15.62;64.15
75026;BME280;63591;50.080;8.286;2022-11-15T11:42:28;99046.75;;;15.62;64.26
75026;BME280;63591;50.080;8.286;2022-11-15T11:47:40;99045.72;;;15.63;64.08
75026;BME280;63591;50.080;8.286;2022-11-15T11:50:19;99045.13;;;15.61;64.14
75026;BME280;63591;50.080;8.286;2022-11-15T11:53:09;99043.69;;;15.59;64.37
75026;BME280;63591;50.080;8.286;2022-11-15T11:55:47;99040.84;;;15.60;64.12
75026;BME280;63591;50.080;8.286;2022-11-15T11:58:35;99032.28;;;15.58;64.66
75026;BME280;63591;50.080;8.286;2022-11-15T12:01:12;99027.63;;;15.60;64.70
75026;BME280;63591;50.080;8.286;2022-11-15T12:03:49;99026.81;;;15.60;64.24
75026;BME280;63591;50.080;8.286;2022-11-15T12:06:47;99023.31;;;15.59;64.48
75026;BME280;63591;50.080;8.286;2022-11-15T12:09:27;99018.66;;;15.61;64.31
75026;BME280;63591;50.080;8.286;2022-11-15T12:12:04;99025.59;;;15.62;64.47
75026;BME280;63591;50.080;8.286;2022-11-15T12:17:13;99009.72;;;15.62;64.62
75026;BME280;63591;50.080;8.286;2022-11-15T12:19:39;99007.06;;;15.62;64.58
75026;BME280;63591;50.080;8.286;2022-11-15T12:22:23;99009.09;;;15.60;64.39
75026;BME280;63591;50.080;8.286;2022-11-15T12:24:59;99000.97;;;15.62;64.47
75026;BME280;63591;50.080;8.286;2022-11-15T12:27:34;98995.47;;;15.63;64.62
75026;BME280;63591;50.080;8.286;2022-11-15T12:30:04;98991.19;;;15.62;64.82
75026;BME280;63591;50.080;8.286;2022-11-15T12:32:37;98989.97;;;15.65;64.98
75026;BME280;63591;50.080;8.286;2022-11-15T12:35:05;98989.97;;;15.65;64.64
75026;BME280;63591;50.080;8.286;2022-11-15T12:59:48;98950.28;;;15.65;64.82
75026;BME280;63591;50.080;8.286;2022-11-15T13:02:27;98950.09;;;15.66;64.91
75026;BME280;63591;50.080;8.286;2022-11-15T13:17:53;98925.28;;;15.68;65.14
75026;BME280;63591;50.080;8.286;2022-11-15T13:20:26;98924.06;;;15.70;65.00
75026;BME280;63591;50.080;8.286;2022-11-15T13:28:02;98918.78;;;15.70;64.98
75026;BME280;63591;50.080;8.286;2022-11-15T13:30:30;98917.97;;;15.70;64.83
75026;BME280;63591;50.080;8.286;2022-11-15T13:32:58;98910.03;;;15.70;65.04
75026;BME280;63591;50.080;8.286;2022-11-15T13:35:27;98913.50;;;15.70;65.18
75026;BME280;63591;50.080;8.286;2022-11-15T13:37:55;98911.03;;;15.69;65.20
75026;BME280;63591;50.080;8.286;2022-11-15T13:40:33;98909.22;;;15.69;65.11
75026;BME280;63591;50.080;8.286;2022-11-15T13:42:59;98900.25;;;15.70;65.31
75026;BME280;63591;50.080;8.286;2022-11-15T13:45:25;98896.00;;;15.69;65.00
75026;BME280;63591;50.080;8.286;2022-11-15T13:47:57;98899.63;;;15.68;65.13
75026;BME280;63591;50.080;8.286;2022-11-15T13:50:33;98896.00;;;15.69;64.83
75026;BME280;63591;50.080;8.286;2022-11-15T13:53:01;98892.53;;;15.69;65.39
75026;BME280;63591;50.080;8.286;2022-11-15T13:55:28;98891.50;;;15.70;65.37
75026;BME280;63591;50.080;8.286;2022-11-15T13:57:58;98881.53;;;15.72;65.26
75026;BME280;63591;50.080;8.286;2022-11-15T14:00:40;98872.00;;;15.71;65.32
75026;BME280;63591;50.080;8.286;2022-11-15T14:03:27;98864.25;;;15.69;65.05
75026;BME280;63591;50.080;8.286;2022-11-15T14:06:11;98864.25;;;15.69;65.27
75026;BME280;63591;50.080;8.286;2022-11-15T14:08:40;98853.47;;;15.71;65.06
75026;BME280;63591;50.080;8.286;2022-11-15T14:11:19;98863.44;;;15.69;65.16
75026;BME280;63591;50.080;8.286;2022-11-15T14:16:38;98862.19;;;15.71;65.39
75026;BME280;63591;50.080;8.286;2022-11-15T14:19:05;98861.22;;;15.72;65.05
75026;BME280;63591;50.080;8.286;2022-11-15T14:21:31;98855.91;;;15.72;65.24
75026;BME280;63591;50.080;8.286;2022-11-15T14:26:41;98846.13;;;15.73;65.34
75026;BME280;63591;50.080;8.286;2022-11-15T14:29:26;98833.50;;;15.68;65.18
75026;BME280;63591;50.080;8.286;2022-11-15T14:31:53;98826.81;;;15.72;65.38
75026;BME280;63591;50.080;8.286;2022-11-15T14:34:20;98823.34;;;15.72;65.75
75026;BME280;63591;50.080;8.286;2022-11-15T14:36:47;98812.75;;;15.72;65.34
75026;BME280;63591;50.080;8.286;2022-11-15T14:39:12;98818.06;;;15.72;65.11
75026;BME280;63591;50.080;8.286;2022-11-15T14:41:38;98810.13;;;15.72;65.44
75026;BME280;63591;50.080;8.286;2022-11-15T14:44:04;98803.00;;;15.72;65.42
75026;BME280;63591;50.080;8.286;2022-11-15T14:46:30;98801.16;;;15.73;65.53
75026;BME280;63591;50.080;8.286;2022-11-15T14:48:56;98801.97;;;15.73;65.50
75026;BME280;63591;50.080;8.286;2022-11-15T14:51:22;98797.50;;;15.74;65.41
75026;BME280;63591;50.080;8.286;2022-11-15T14:53:47;98792.22;;;15.74;65.56
75026;BME280;63591;50.080;8.286;2022-11-15T14:56:14;98783.25;;;15.75;65.60
75026;BME280;63591;50.080;8.286;2022-11-15T14:58:41;98772.69;;;15.75;65.78
75026;BME280;63591;50.080;8.286;2022-11-15T15:01:25;98778.38;;;15.72;65.52
75026;BME280;63591;50.080;8.286;2022-11-15T15:03:51;98768.41;;;15.74;65.58